Impacts TAF Board
For situational awareness. Not to be used for flight planning purposes.
IDs:

KSTL - St Louis/Lambert Int, MO, US

Issued at 1720 UTC 02 Oct 2022
Updated at 1912 UTC 02 Oct 2022
Potential Impact None Slight Moderate High
Time<<03/20Z 03/21Z 03/22Z 03/23Z 04/00Z 04/01Z 04/02Z 04/03Z 04/04Z 04/05Z 04/06Z 04/07Z 04/08Z
Type PRVL PRVL PRVL PRVL
VIS >6 >6 >6 >6
CIG -- -- -- --
Cover SKC SKC SKC SKC
FltCat VFR VFR VFR VFR
WX -- -- -- --
WDir 50 50 50 50
WSpd 6 6 6 6
WGst -- -- -- --
WSHgt -- -- -- --
WSDir -- -- -- --
WSSpd -- -- -- --
Raw TAF
KSTL 021720Z 0218/0324 05006KT P6SM SKC

METAR Board
Radar Display
Forecast Discussion
For situational awareness. Not to be used for flight planning purposes.